Time;durP1;ratioP1;P1;durP2;ratioP2;P2;SDS_P1;SDS_P2;PMS_P1;PMS_P2;Temp;Humidity;BMP_temperature;BMP_pressure;BME280_temperature;BME280_humidity;BME280_pressure;Samples;Min_cycle;Max_cycle;Signal;HPM_P1;HPM_P2
2024/02/10 15:04:05;;;;;;;5.70;2.03;;;12.60;62.40;;;;;;6317190;27;20885;-85
2024/02/10 15:07:08;;;;;;;4.80;2.03;;;12.50;59.50;;;;;;6312034;28;20048;-88
2024/02/10 15:10:09;;;;;;;7.80;1.40;;;12.60;65.10;;;;;;6309422;28;20052;-85
2024/02/10 15:13:11;;;;;;;7.70;1.85;;;12.50;73.90;;;;;;6296385;28;20056;-85
2024/02/10 15:16:13;;;;;;;4.63;1.45;;;12.60;71.20;;;;;;6289530;28;20044;-83
2024/02/10 15:19:15;;;;;;;7.93;1.80;;;12.60;77.60;;;;;;6283823;28;20519;-87
2024/02/10 15:22:19;;;;;;;5.72;1.50;;;12.50;71.70;;;;;;6314262;28;20098;-79
2024/02/10 15:25:20;;;;;;;7.03;1.55;;;12.40;67.60;;;;;;6289785;28;20129;-87
2024/02/10 15:28:28;;;;;;;8.05;1.58;;;12.40;80.00;;;;;;6282860;28;20064;-86
2024/02/10 15:31:34;;;;;;;6.13;1.65;;;12.20;79.50;;;;;;6311815;28;20056;-86
2024/02/10 15:34:36;;;;;;;6.97;1.55;;;12.30;81.90;;;;;;6291255;28;20056;-91
2024/02/10 15:37:52;;;;;;;6.90;1.63;;;12.20;82.00;;;;;;6273829;28;20048;-91
2024/02/10 15:40:53;;;;;;;7.18;1.60;;;12.10;87.50;;;;;;6296298;28;20060;-88
2024/02/10 15:43:55;;;;;;;13.10;1.90;;;12.10;89.10;;;;;;6279678;28;20178;-88
2024/02/10 15:46:57;;;;;;;12.68;2.55;;;12.10;92.80;;;;;;6288673;28;20060;-86
2024/02/10 15:49:59;;;;;;;6.82;1.80;;;11.90;94.60;;;;;;6287968;28;20538;-86
2024/02/10 15:53:01;;;;;;;10.20;2.40;;;11.90;93.50;;;;;;6297144;28;20510;-85
2024/02/10 15:56:03;;;;;;;9.85;2.00;;;11.80;94.90;;;;;;6276800;28;20506;-85
2024/02/10 15:59:06;;;;;;;11.27;2.45;;;11.70;98.50;;;;;;6307244;28;20059;-85
2024/02/10 16:02:09;;;;;;;7.60;1.73;;;11.60;99.90;;;;;;6290100;28;20135;-84
2024/02/10 16:05:16;;;;;;;9.80;1.90;;;11.70;99.90;;;;;;6294763;28;20052;-86
2024/02/10 16:08:18;;;;;;;11.70;2.03;;;11.40;99.90;;;;;;6290363;28;20698;-85
2024/02/10 16:11:20;;;;;;;10.25;2.10;;;11.30;99.90;;;;;;6283441;28;20056;-87
2024/02/10 16:14:27;;;;;;;9.88;2.08;;;11.20;99.90;;;;;;6269797;28;20064;-86
2024/02/10 16:17:33;;;;;;;9.57;1.98;;;11.10;99.90;;;;;;6264165;28;20049;-86
2024/02/10 16:20:35;;;;;;;8.20;1.77;;;11.00;99.90;;;;;;6275283;28;20890;-87
2024/02/10 16:23:38;;;;;;;11.60;2.08;;;11.00;99.90;;;;;;6296333;28;20060;-87
2024/02/10 16:26:40;;;;;;;11.75;1.92;;;11.00;99.90;;;;;;6298151;28;20056;-87
2024/02/10 16:29:45;;;;;;;11.18;2.13;;;10.90;99.90;;;;;;6255656;28;20071;-87
2024/02/10 16:32:48;;;;;;;11.07;1.90;;;10.90;99.90;;;;;;6297192;28;20139;-87
2024/02/10 16:35:50;;;;;;;11.48;1.90;;;10.80;99.90;;;;;;6280308;28;20052;-87
2024/02/10 16:38:52;;;;;;;12.80;1.95;;;10.80;99.90;;;;;;6297449;28;20588;-87
2024/02/10 16:41:54;;;;;;;11.27;1.92;;;10.80;99.90;;;;;;6286507;28;20040;-87
2024/02/10 16:44:57;;;;;;;10.85;1.80;;;10.80;99.90;;;;;;6287615;28;20080;-86
2024/02/10 16:47:59;;;;;;;10.63;1.98;;;10.80;99.90;;;;;;6287719;28;20051;-87
2024/02/10 16:51:03;;;;;;;9.05;1.88;;;10.70;99.90;;;;;;6290148;28;20055;-84
2024/02/10 16:54:09;;;;;;;10.10;2.03;;;10.80;99.90;;;;;;6280592;28;20048;-86
2024/02/10 16:57:11;;;;;;;10.23;2.47;;;10.80;99.90;;;;;;6264907;28;20090;-87
2024/02/10 17:00:18;;;;;;;7.65;1.80;;;10.80;99.90;;;;;;6281318;28;20055;-86
2024/02/10 17:03:21;;;;;;;12.02;2.45;;;10.70;99.90;;;;;;6282839;28;20133;-85
2024/02/10 17:06:23;;;;;;;10.75;2.35;;;10.70;99.90;;;;;;6272344;28;20048;-84
2024/02/10 17:09:25;;;;;;;12.73;2.67;;;10.70;99.90;;;;;;6257819;28;20067;-85
2024/02/10 17:12:28;;;;;;;11.23;2.08;;;10.60;99.90;;;;;;6274771;28;20183;-85
2024/02/10 17:15:29;;;;;;;10.65;2.53;;;10.60;99.90;;;;;;6259262;28;20048;-87
2024/02/10 17:18:31;;;;;;;11.15;2.83;;;10.50;99.90;;;;;;6254569;28;20056;-87
2024/02/10 17:21:33;;;;;;;12.25;2.80;;;10.40;99.90;;;;;;6262410;28;20134;-87
2024/02/10 17:24:37;;;;;;;12.85;3.05;;;10.30;99.90;;;;;;6262345;28;20049;-86
2024/02/10 17:27:39;;;;;;;13.30;3.55;;;10.20;99.90;;;;;;6257310;28;20048;-87
2024/02/10 17:30:41;;;;;;;14.20;4.00;;;10.20;99.90;;;;;;6280010;28;20076;-87
2024/02/10 17:33:42;;;;;;;13.63;4.30;;;10.20;99.90;;;;;;6254616;28;20052;-86
2024/02/10 17:36:45;;;;;;;15.68;4.03;;;10.10;99.90;;;;;;6281765;28;20055;-87
2024/02/10 17:39:46;;;;;;;9.40;3.13;;;10.10;99.90;;;;;;6287471;28;20084;-87
2024/02/10 17:42:50;;;;;;;12.65;3.63;;;10.40;99.90;;;;;;6259624;28;20052;-87
2024/02/10 17:45:55;;;;;;;9.88;3.20;;;10.00;99.90;;;;;;6255122;28;20060;-89
2024/02/10 17:49:00;;;;;;;17.52;3.30;;;9.90;99.90;;;;;;6264033;28;20055;-87
2024/02/10 17:52:02;;;;;;;15.35;3.83;;;9.90;99.90;;;;;;6285613;28;20045;-88
2024/02/10 17:55:06;;;;;;;10.30;3.70;;;9.80;99.90;;;;;;6265055;28;20041;-88
2024/02/10 17:58:16;;;;;;;12.30;3.90;;;9.80;99.90;;;;;;6268055;28;20045;-88
2024/02/10 18:01:21;;;;;;;13.27;3.47;;;9.80;99.90;;;;;;6271049;28;20138;-88
2024/02/10 18:04:23;;;;;;;12.90;3.83;;;9.70;99.90;;;;;;6289149;28;20056;-85
2024/02/10 18:07:27;;;;;;;12.93;3.90;;;9.80;99.90;;;;;;6267089;28;20511;-83
2024/02/10 18:10:28;;;;;;;18.15;4.40;;;9.70;99.90;;;;;;6283356;28;20050;-86
2024/02/10 18:13:30;;;;;;;13.30;3.55;;;9.70;99.90;;;;;;6264873;28;20109;-87
2024/02/10 18:16:32;;;;;;;13.48;3.40;;;9.70;99.90;;;;;;6274227;28;20101;-86
2024/02/10 18:19:34;;;;;;;12.23;3.75;;;9.70;99.90;;;;;;6273325;28;20178;-86
2024/02/10 18:22:36;;;;;;;12.75;3.45;;;9.70;99.90;;;;;;6258533;28;20044;-86
2024/02/10 18:25:41;;;;;;;11.77;2.97;;;9.60;99.90;;;;;;6267364;28;20053;-88
2024/02/10 18:28:47;;;;;;;13.52;3.03;;;9.60;99.90;;;;;;6257649;28;20356;-88
2024/02/10 18:31:49;;;;;;;9.25;2.75;;;9.60;99.90;;;;;;6286621;28;20066;-88
2024/02/10 18:34:52;;;;;;;12.88;3.05;;;9.60;99.90;;;;;;6261183;28;20049;-88
2024/02/10 18:38:00;;;;;;;9.43;2.78;;;9.50;99.90;;;;;;6273579;28;20040;-87
2024/02/10 18:41:03;;;;;;;15.60;4.22;;;9.60;99.90;;;;;;6261440;28;20052;-87
2024/02/10 18:44:08;;;;;;;16.23;4.13;;;9.50;99.90;;;;;;6242237;28;20052;-86
2024/02/10 18:47:10;;;;;;;14.73;4.70;;;9.50;99.90;;;;;;6259549;28;20049;-90
2024/02/10 18:50:16;;;;;;;17.15;4.40;;;9.40;99.90;;;;;;6262309;28;20183;-85
2024/02/10 18:53:18;;;;;;;16.08;4.70;;;9.50;99.90;;;;;;6259985;28;20407;-91
2024/02/10 18:56:26;;;;;;;14.32;4.20;;;9.50;99.90;;;;;;6263832;28;20060;-91
2024/02/10 18:59:28;;;;;;;16.55;4.05;;;;;;;;;;6244668;28;20063;-92
2024/02/10 19:02:31;;;;;;;18.60;4.95;;;9.50;99.90;;;;;;6265339;28;20067;-87
2024/02/10 19:05:35;;;;;;;16.23;4.30;;;9.40;99.90;;;;;;6268646;28;20075;-87
2024/02/10 19:08:37;;;;;;;15.98;3.92;;;9.50;99.90;;;;;;6278351;28;20569;-88
2024/02/10 19:11:39;;;;;;;12.95;3.50;;;9.50;99.90;;;;;;6256361;28;20060;-86
2024/02/10 19:14:41;;;;;;;15.70;3.83;;;9.50;99.90;;;;;;6277147;28;20041;-86
2024/02/10 19:17:45;;;;;;;12.15;3.70;;;9.40;99.90;;;;;;6274182;28;20052;-83
2024/02/10 19:20:47;;;;;;;13.65;3.95;;;9.60;99.90;;;;;;6285739;28;20045;-88
2024/02/10 19:23:49;;;;;;;12.30;3.95;;;9.50;99.90;;;;;;6281455;28;20053;-88
2024/02/10 19:26:51;;;;;;;12.95;4.10;;;9.50;99.90;;;;;;6274703;28;20060;-88
2024/02/10 19:29:55;;;;;;;15.98;4.40;;;9.40;99.90;;;;;;6281668;28;20053;-88
2024/02/10 19:32:57;;;;;;;12.93;4.47;;;9.40;99.90;;;;;;6274852;28;20049;-86
2024/02/10 19:36:02;;;;;;;17.98;4.20;;;;;;;;;;6272624;28;20060;-92
2024/02/10 19:39:04;;;;;;;17.40;4.50;;;9.50;99.90;;;;;;6271588;28;20279;-87
2024/02/10 19:42:09;;;;;;;14.60;4.28;;;9.50;99.90;;;;;;6274843;28;20277;-86
2024/02/10 19:45:13;;;;;;;16.52;4.43;;;9.40;99.90;;;;;;6268749;28;20055;-85
2024/02/10 19:48:19;;;;;;;19.23;4.63;;;9.40;99.90;;;;;;6254996;28;20049;-85
2024/02/10 19:51:22;;;;;;;16.95;4.22;;;;;;;;;;6276165;28;20060;-89
2024/02/10 19:54:26;;;;;;;12.82;3.95;;;;;;;;;;6262674;28;20048;-89
2024/02/10 19:57:32;;;;;;;19.42;4.25;;;9.50;99.90;;;;;;6279799;28;20057;-87
2024/02/10 20:00:34;;;;;;;15.35;4.22;;;9.50;99.90;;;;;;6274467;28;20411;-85
2024/02/10 20:03:38;;;;;;;14.52;4.32;;;9.40;99.90;;;;;;6281413;28;20071;-86
2024/02/10 20:06:41;;;;;;;15.85;4.32;;;9.40;99.90;;;;;;6279765;28;20243;-85
2024/02/10 20:09:43;;;;;;;18.42;5.47;;;9.40;99.90;;;;;;6277338;28;20704;-85
2024/02/10 20:12:45;;;;;;;23.55;4.90;;;9.40;99.90;;;;;;6279276;28;20106;-84
2024/02/10 20:15:47;;;;;;;18.50;4.30;;;9.40;99.90;;;;;;6278785;28;20407;-83
2024/02/10 20:18:49;;;;;;;19.17;4.80;;;9.40;99.90;;;;;;6275476;28;20420;-84
2024/02/10 20:21:51;;;;;;;18.20;4.20;;;;;;;;;;6273933;28;20074;-85
2024/02/10 20:24:54;;;;;;;18.42;4.50;;;9.90;99.90;;;;;;6277954;28;20053;-85
2024/02/10 20:27:56;;;;;;;16.20;4.65;;;9.30;99.90;;;;;;6247841;28;20052;-85
2024/02/10 20:30:59;;;;;;;14.38;4.43;;;;;;;;;;6278253;28;20044;-85
2024/02/10 20:34:01;;;;;;;19.80;4.95;;;;;;;;;;6279682;28;20053;-87
2024/02/10 20:37:09;;;;;;;17.15;5.40;;;9.00;99.90;;;;;;6278877;28;20491;-84
2024/02/10 20:40:14;;;;;;;20.33;5.32;;;11.60;99.90;;;;;;6257843;28;20140;-87
2024/02/10 20:43:16;;;;;;;24.98;6.25;;;;;;;;;;6267218;28;20634;-85
2024/02/10 20:46:17;;;;;;;16.40;5.65;;;9.30;99.90;;;;;;6274661;28;20048;-86
2024/02/10 20:49:19;;;;;;;16.98;5.60;;;9.30;99.90;;;;;;6255707;28;20520;-86
2024/02/10 20:52:23;;;;;;;18.30;5.88;;;9.20;99.90;;;;;;6274998;28;20051;-86
2024/02/10 20:55:26;;;;;;;22.73;5.80;;;;;;;;;;6277747;28;20052;-85
2024/02/10 20:58:29;;;;;;;16.33;4.68;;;9.20;99.90;;;;;;6276373;28;20420;-85
2024/02/10 21:01:32;;;;;;;15.43;5.22;;;;;;;;;;6280267;28;20144;-86
2024/02/10 21:04:35;;;;;;;13.20;5.15;;;9.20;99.90;;;;;;6272755;28;20053;-85
2024/02/10 21:07:39;;;;;;;18.13;5.53;;;9.20;99.90;;;;;;6279546;28;20606;-85
2024/02/10 21:10:41;;;;;;;16.08;4.78;;;;;;;;;;6273708;28;20053;-87
2024/02/10 21:13:43;;;;;;;16.75;5.15;;;8.70;99.90;;;;;;6274986;28;20045;-85
2024/02/10 21:16:46;;;;;;;14.88;5.70;;;8.80;99.90;;;;;;6252927;28;20057;-87
2024/02/10 21:19:48;;;;;;;21.73;5.03;;;9.20;99.90;;;;;;6272024;28;20041;-85
2024/02/10 21:22:52;;;;;;;16.80;5.20;;;9.50;99.90;;;;;;6275383;28;20349;-86
2024/02/10 21:25:55;;;;;;;21.10;5.53;;;9.10;99.90;;;;;;6291957;28;20369;-85
2024/02/10 21:28:58;;;;;;;13.73;4.60;;;9.90;99.90;;;;;;6262225;28;20597;-86
2024/02/10 21:32:00;;;;;;;17.38;5.10;;;9.10;99.90;;;;;;6280328;28;20558;-85
2024/02/10 21:35:02;;;;;;;22.13;5.40;;;9.00;99.90;;;;;;6259256;28;20408;-85
2024/02/10 21:38:05;;;;;;;18.50;5.28;;;9.00;99.90;;;;;;6282474;28;20076;-85
2024/02/10 21:41:07;;;;;;;16.05;5.47;;;9.00;99.90;;;;;;6276207;28;20068;-84
2024/02/10 21:44:14;;;;;;;20.23;5.75;;;9.00;99.90;;;;;;6265182;28;20071;-85
2024/02/10 21:47:16;;;;;;;19.85;5.00;;;9.00;99.90;;;;;;6278576;28;20056;-87
2024/02/10 21:50:18;;;;;;;18.83;5.03;;;8.90;99.90;;;;;;6279981;28;20466;-85
2024/02/10 21:53:20;;;;;;;17.67;4.75;;;;;;;;;;6272304;28;20060;-83
2024/02/10 21:56:22;;;;;;;16.38;4.80;;;8.90;99.90;;;;;;6275689;28;20426;-83
2024/02/10 21:59:27;;;;;;;10.73;3.85;;;;;;;;;;6257395;28;20045;-86
2024/02/10 22:02:31;;;;;;;13.02;4.15;;;;;;;;;;6273667;28;20142;-84
2024/02/10 22:05:37;;;;;;;17.30;4.97;;;;;;;;;;6286313;28;20056;-85
2024/02/10 22:08:40;;;;;;;13.15;4.88;;;;;;;;;;6266712;28;20052;-85
2024/02/10 22:11:42;;;;;;;15.57;4.10;;;;;;;;;;6289303;28;20071;-85
2024/02/10 22:14:44;;;;;;;12.98;4.65;;;8.70;99.90;;;;;;6258016;28;20492;-85
2024/02/10 22:17:47;;;;;;;11.38;3.63;;;;;;;;;;6273692;28;20076;-85
2024/02/10 22:20:49;;;;;;;19.35;4.68;;;;;;;;;;6292790;28;20052;-85
2024/02/10 22:23:51;;;;;;;18.70;4.60;;;;;;;;;;6293750;28;20060;-85
2024/02/10 22:26:53;;;;;;;18.85;4.55;;;9.10;99.90;;;;;;6269283;28;20045;-85
2024/02/10 22:29:55;;;;;;;16.65;4.60;;;;;;;;;;6269745;28;20523;-85
2024/02/10 22:32:57;;;;;;;19.42;4.82;;;;;;;;;;6268744;28;20071;-85
2024/02/10 22:36:00;;;;;;;19.95;4.50;;;;;;;;;;6293172;28;20048;-85
2024/02/10 22:39:14;;;;;;;20.45;4.82;;;8.50;99.90;;;;;;6269886;28;20151;-85
2024/02/10 22:42:16;;;;;;;18.17;5.07;;;;;;;;;;6274457;28;20168;-85
2024/02/10 22:45:21;;;;;;;18.52;5.30;;;;;;;;;;6287116;28;20059;-85
2024/02/10 22:48:25;;;;;;;16.25;4.88;;;;;;;;;;6268670;28;20060;-84
2024/02/10 22:51:27;;;;;;;16.52;4.60;;;8.40;99.90;;;;;;6292221;28;20061;-83
2024/02/10 22:54:29;;;;;;;25.48;5.07;;;;;;;;;;6293140;28;20049;-84
2024/02/10 22:57:31;;;;;;;19.38;5.10;;;;;;;;;;6283949;28;20433;-80
2024/02/10 23:03:41;;;;;;;17.00;4.70;;;8.30;99.90;;;;;;6270778;28;20072;-85
2024/02/10 23:06:46;;;;;;;25.48;5.30;;;8.30;99.90;;;;;;6286540;28;20052;-84
2024/02/10 23:09:48;;;;;;;19.23;4.75;;;;;;;;;;6243628;28;20053;-84
2024/02/10 23:13:03;;;;;;;16.73;4.88;;;;;;;;;;6289086;28;20047;-84
2024/02/10 23:16:10;;;;;;;21.63;5.55;;;8.30;99.90;;;;;;6258490;28;20045;-84
2024/02/10 23:19:12;;;;;;;22.70;5.00;;;8.30;99.90;;;;;;6243937;28;20069;-84
2024/02/10 23:22:14;;;;;;;23.15;5.53;;;8.20;99.90;;;;;;6290375;28;20048;-84
2024/02/10 23:25:19;;;;;;;14.80;4.85;;;8.50;99.90;;;;;;6274379;28;20063;-85
2024/02/10 23:28:21;;;;;;;18.75;5.00;;;8.30;99.90;;;;;;6273174;28;20044;-80
2024/02/10 23:31:26;;;;;;;19.05;4.90;;;8.30;99.90;;;;;;6296645;28;20056;-84
2024/02/10 23:34:29;;;;;;;18.08;5.00;;;8.30;99.90;;;;;;6271550;28;20048;-84
2024/02/10 23:37:32;;;;;;;23.52;4.72;;;;;;;;;;6292747;28;20096;-84
2024/02/10 23:40:37;;;;;;;21.85;4.47;;;;;;;;;;6297186;28;20488;-84
2024/02/10 23:43:41;;;;;;;30.17;5.18;;;;;;;;;;6271287;28;20558;-85
2024/02/10 23:46:43;;;;;;;17.83;4.63;;;8.60;99.90;;;;;;6272249;28;20063;-84
2024/02/10 23:49:45;;;;;;;16.10;4.15;;;8.60;99.90;;;;;;6296688;28;20064;-85
2024/02/10 23:52:46;;;;;;;19.13;5.20;;;8.50;99.90;;;;;;6271535;28;20063;-85
2024/02/10 23:55:49;;;;;;;19.60;4.50;;;8.50;99.90;;;;;;6266037;28;20053;-85
2024/02/10 23:58:52;;;;;;;21.40;4.97;;;8.40;99.90;;;;;;6280113;28;20057;-86
